Погода Бургенландна 2 недели

Бургенланд, Австрия

20 июня-03 июля
  • 20июня
    Сегодня
    +18°
    +29°
    Практически безоблачно
    ВремяПогодаТемператураВлажностьДавлениеВетер, м/сВероятность осадков
    02:00Небольшая облачность+21°C72 %736 мм1.1 м/с2 %
    05:00Ясно и безоблачно+20°C78 %737 мм1.4 м/с2 %
    08:00Ясно и безоблачно+22°C76 %739 мм1.5 м/с2 %
    11:00Облачно с прояснениями+25°C62 %740 мм1.9 м/с2 %
    14:00Практически безоблачно+28°C54 %740 мм1.4 м/с2 %
    17:00Облачно с прояснениями+28°C54 %739 мм1.6 м/с2 %
    20:00Облачно с прояснениями+26°C70 %737 мм0.3 м/с2 %
    23:00Небольшая облачность+22°C74 %737 мм0.3 м/с1 %
  • 21июня
    Пятница
    +20°
    +34°
    Небольшая облачность
    ВремяПогодаТемператураВлажностьДавлениеВетер, м/сВероятность осадков
    02:00Облачно с прояснениями+20°C81 %737 мм0.2 м/с2 %
    05:00Облачно с прояснениями+19°C84 %736 мм0.2 м/с2 %
    08:00Практически безоблачно+23°C79 %736 мм0.4 м/с2 %
    11:00Облачно с прояснениями+29°C68 %736 мм1.4 м/с2 %
    14:00Небольшая облачность+31°C57 %735 мм1.7 м/с3 %
    17:00Ясно и безоблачно+33°C54 %734 мм1.8 м/с6 %
    20:00Ясно и безоблачно+30°C76 %733 мм0.9 м/с2 %
    23:00Облачно с прояснениями+23°C80 %732 мм0.5 м/с2 %
  • 22июня
    Суббота
    +17°
    +28°
    Практически безоблачно
    ВремяПогодаТемператураВлажностьДавлениеВетер, м/сВероятность осадков
    02:00Ясно и безоблачно+21°C85 %731 мм0.6 м/с2 %
    05:00Практически безоблачно+21°C84 %732 мм0.9 м/с18 %
    08:00Небольшая облачность, возможен дождь с грозой+22°C71 %733 мм1.4 м/с39 %
    11:00Небольшая облачность+25°C66 %734 мм2.1 м/с47 %
    14:00Практически безоблачно+26°C50 %734 мм1.8 м/с23 %
    17:00Практически безоблачно+27°C44 %733 мм2.0 м/с20 %
    20:00Ясно и безоблачно+24°C53 %733 мм1.3 м/с14 %
    23:00Практически безоблачно+20°C54 %733 мм1.1 м/с10 %
  • 23июня
    Воскресенье
    +15°
    +26°
    Облачно с прояснениями
    ВремяПогодаТемператураВлажностьДавлениеВетер, м/сВероятность осадков
    02:00Практически безоблачно+19°C65 %733 мм1.6 м/с14 %
    05:00Небольшая облачность+18°C72 %734 мм1.8 м/с11 %
    08:00Облачно с прояснениями+21°C68 %735 мм2.5 м/с14 %
    11:00Облачно с прояснениями+24°C52 %736 мм3.4 м/с8 %
    14:00Облачно с прояснениями+26°C44 %736 мм3.0 м/с10 %
    17:00Облачно с прояснениями+24°C41 %735 мм2.9 м/с12 %
    20:00Ясно и безоблачно+23°C52 %736 мм1.8 м/с13 %
    23:00Ясно и безоблачно+19°C61 %737 мм1.3 м/с8 %
  • 24июня
    Понедельник
    +15°
    +27°
    Ясно и безоблачно
    ВремяПогодаТемператураВлажностьДавлениеВетер, м/сВероятность осадков
    02:00Ясно и безоблачно+18°C55 %737 мм1.9 м/с13 %
    05:00Ясно и безоблачно+16°C64 %737 мм1.9 м/с15 %
    08:00Ясно и безоблачно+20°C63 %738 мм2.1 м/с15 %
    11:00Ясно и безоблачно+25°C50 %739 мм2.9 м/с14 %
    14:00Ясно и безоблачно+26°C45 %738 мм2.2 м/с5 %
    17:00Ясно и безоблачно+26°C44 %737 мм2.6 м/с12 %
    20:00Ясно и безоблачно+24°C54 %738 мм0.9 м/с13 %
    23:00Ясно и безоблачно+20°C62 %738 мм1.1 м/с21 %
Мы используем cookies
Соглашаюсь